createdAt,value
2019-03-11T00:00:01.694Z,3.80
2019-03-11T00:02:35.187Z,3.80
2019-03-11T00:05:08.550Z,3.80
2019-03-11T00:07:40.303Z,3.80
2019-03-11T00:10:12.280Z,3.80
2019-03-11T00:12:44.001Z,3.70
2019-03-11T00:15:15.827Z,3.70
2019-03-11T00:17:47.563Z,3.50
2019-03-11T00:20:19.399Z,3.40
2019-03-11T00:22:51.150Z,3.40
2019-03-11T00:25:22.838Z,3.20
2019-03-11T00:27:54.616Z,3.10
2019-03-11T00:30:26.328Z,3.00
2019-03-11T00:32:58.386Z,2.90
2019-03-11T00:35:30.062Z,2.80
2019-03-11T00:38:01.836Z,2.60
2019-03-11T00:40:33.654Z,2.40
2019-03-11T00:43:05.377Z,2.30
2019-03-11T00:45:36.966Z,2.20
2019-03-11T00:48:08.687Z,2.10
2019-03-11T00:50:40.630Z,2.00
2019-03-11T00:53:12.433Z,1.90
2019-03-11T00:55:45.419Z,1.80
2019-03-11T00:58:17.538Z,1.80
2019-03-11T01:00:49.385Z,1.70
2019-03-11T01:03:21.022Z,1.60
2019-03-11T01:05:52.868Z,1.50
2019-03-11T01:08:24.730Z,1.50
2019-03-11T01:10:56.414Z,1.40
2019-03-11T01:13:28.053Z,1.30
2019-03-11T01:16:00.953Z,1.20
2019-03-11T01:18:32.720Z,1.20
2019-03-11T01:21:04.480Z,1.20
2019-03-11T01:23:36.202Z,1.10
2019-03-11T01:26:07.878Z,1.10
2019-03-11T01:28:39.705Z,1.10
2019-03-11T01:31:11.531Z,1.10
2019-03-11T01:33:43.508Z,1.00
2019-03-11T01:36:15.299Z,1.10
2019-03-11T01:38:47.174Z,1.00
2019-03-11T01:41:18.890Z,1.00
2019-03-11T01:43:50.661Z,1.00
2019-03-11T01:46:22.330Z,0.90
2019-03-11T01:48:54.008Z,0.90
2019-03-11T01:51:25.867Z,0.90
2019-03-11T01:53:57.540Z,0.90
2019-03-11T01:56:29.174Z,0.90
2019-03-11T01:59:00.922Z,0.90
2019-03-11T02:01:32.541Z,0.90
2019-03-11T02:04:04.202Z,0.90
2019-03-11T02:06:35.857Z,0.90
2019-03-11T02:09:08.087Z,0.80
2019-03-11T02:11:39.922Z,0.80
2019-03-11T02:14:11.790Z,0.80
2019-03-11T02:16:43.476Z,0.80
2019-03-11T02:19:15.252Z,0.80
2019-03-11T02:21:47.122Z,0.80
2019-03-11T02:24:18.789Z,0.80
2019-03-11T02:26:50.573Z,0.90
2019-03-11T02:29:23.352Z,0.90
2019-03-11T02:31:55.023Z,0.90
2019-03-11T02:34:27.041Z,0.90
2019-03-11T02:36:58.673Z,0.90
2019-03-11T02:39:30.353Z,0.90
2019-03-11T02:42:01.965Z,0.90
2019-03-11T02:44:34.223Z,1.00
2019-03-11T02:47:06.113Z,1.00
2019-03-11T02:49:37.656Z,1.00
2019-03-11T02:52:09.455Z,1.00
2019-03-11T02:54:41.212Z,1.00
2019-03-11T02:57:12.868Z,1.00
2019-03-11T02:59:44.541Z,1.00
2019-03-11T03:02:46.251Z,1.00
2019-03-11T03:05:25.524Z,1.10
2019-03-11T03:07:57.677Z,1.10
2019-03-11T03:10:29.460Z,1.10
2019-03-11T03:13:01.064Z,1.20
2019-03-11T03:15:32.741Z,1.20
2019-03-11T03:18:04.363Z,1.20
2019-03-11T03:20:36.198Z,1.30
2019-03-11T03:23:07.846Z,1.30
2019-03-11T03:25:39.391Z,1.30
2019-03-11T03:28:11.196Z,1.30
2019-03-11T03:30:42.855Z,1.40
2019-03-11T03:33:14.832Z,1.40
2019-03-11T03:35:46.649Z,1.40
2019-03-11T03:38:29.406Z,1.40
2019-03-11T03:40:51.582Z,1.40
2019-03-11T03:43:23.520Z,1.50
2019-03-11T03:45:55.209Z,1.40
2019-03-11T03:48:27.049Z,1.50
2019-03-11T03:50:58.885Z,1.50
2019-03-11T03:53:30.620Z,1.50
2019-03-11T03:56:02.662Z,1.50
2019-03-11T03:58:34.395Z,1.50
2019-03-11T04:01:06.103Z,1.60
2019-03-11T04:03:38.004Z,1.60
2019-03-11T04:06:09.757Z,1.60
2019-03-11T04:08:41.768Z,1.60
2019-03-11T04:11:13.555Z,1.70
2019-03-11T04:13:50.102Z,1.70
2019-03-11T04:16:22.063Z,1.70
2019-03-11T04:18:58.332Z,1.80
2019-03-11T04:21:30.191Z,1.80
2019-03-11T04:24:01.987Z,1.80
2019-03-11T04:26:33.960Z,1.80
2019-03-11T04:29:06.313Z,1.80
2019-03-11T04:31:37.946Z,1.80
2019-03-11T04:34:10.077Z,1.80
2019-03-11T04:36:41.963Z,1.70
2019-03-11T04:39:13.684Z,1.70
2019-03-11T04:41:45.496Z,1.60
2019-03-11T04:44:18.706Z,1.60
2019-03-11T04:46:51.178Z,1.60
2019-03-11T04:49:22.865Z,1.50
2019-03-11T04:51:54.710Z,1.50
2019-03-11T04:54:26.543Z,1.50
2019-03-11T04:56:58.101Z,1.50
2019-03-11T04:59:30.106Z,1.40
2019-03-11T05:02:02.020Z,1.40
2019-03-11T05:04:38.182Z,1.40
2019-03-11T05:07:10.215Z,1.30
2019-03-11T05:09:42.162Z,1.30
2019-03-11T05:12:14.450Z,1.30
2019-03-11T05:14:46.539Z,1.30
2019-03-11T05:17:18.651Z,1.30
2019-03-11T05:19:50.441Z,1.30
2019-03-11T05:22:22.252Z,1.30
2019-03-11T05:24:53.918Z,1.30
2019-03-11T05:27:26.074Z,1.30
2019-03-11T05:29:59.123Z,1.30
2019-03-11T05:32:30.864Z,1.30
2019-03-11T05:35:02.731Z,1.30
2019-03-11T05:37:34.647Z,1.40
2019-03-11T05:40:06.490Z,1.30
2019-03-11T05:42:38.281Z,1.40
2019-03-11T05:45:11.555Z,1.40
2019-03-11T05:47:45.301Z,1.40
2019-03-11T05:50:17.145Z,1.50
2019-03-11T05:52:50.178Z,1.50
2019-03-11T05:55:22.192Z,1.50
2019-03-11T05:57:54.252Z,1.60
2019-03-11T06:00:30.453Z,1.60
2019-03-11T06:03:04.208Z,1.60
2019-03-11T06:05:36.411Z,1.60
2019-03-11T06:08:10.154Z,1.70
2019-03-11T06:10:43.528Z,1.70
2019-03-11T06:13:15.278Z,1.70
2019-03-11T06:15:47.334Z,1.80
2019-03-11T06:18:38.378Z,1.80
2019-03-11T06:21:36.956Z,1.90
2019-03-11T06:24:08.839Z,2.00
2019-03-11T06:26:42.098Z,2.20
2019-03-11T06:29:13.942Z,2.40
2019-03-11T06:31:47.287Z,2.60
2019-03-11T06:34:19.540Z,2.80
2019-03-11T06:36:54.248Z,2.80
2019-03-11T06:39:26.514Z,2.80
2019-03-11T06:42:01.535Z,2.80
2019-03-11T06:44:35.645Z,2.90
2019-03-11T06:47:07.994Z,2.90
2019-03-11T06:49:41.615Z,3.00
2019-03-11T06:52:14.026Z,3.00
2019-03-11T06:54:46.186Z,3.00
2019-03-11T06:57:19.323Z,2.90
2019-03-11T06:59:51.346Z,2.80
2019-03-11T07:02:24.625Z,2.90
2019-03-11T07:04:57.678Z,3.00
2019-03-11T07:07:33.231Z,3.30
2019-03-11T07:10:08.974Z,3.50
2019-03-11T07:12:42.309Z,3.70
2019-03-11T07:15:16.601Z,3.70
2019-03-11T07:17:50.117Z,3.70
2019-03-11T07:20:23.512Z,3.70
2019-03-11T07:22:56.858Z,3.80
2019-03-11T07:25:30.730Z,3.90
2019-03-11T07:28:03.246Z,4.00
2019-03-11T07:30:36.752Z,4.10
2019-03-11T07:33:08.802Z,4.10
2019-03-11T07:35:42.509Z,4.10
2019-03-11T07:38:15.437Z,4.10
2019-03-11T07:40:47.652Z,4.20
2019-03-11T07:43:19.456Z,4.50
2019-03-11T07:45:51.108Z,4.60
2019-03-11T07:48:27.399Z,5.00
2019-03-11T07:51:02.119Z,5.00
2019-03-11T07:53:35.381Z,4.80
2019-03-11T07:56:08.370Z,4.80
2019-03-11T07:58:40.564Z,5.20
2019-03-11T08:01:13.626Z,5.10
2019-03-11T08:03:50.618Z,4.80
2019-03-11T08:06:21.663Z,4.50
2019-03-11T08:08:53.860Z,4.50
2019-03-11T08:11:40.202Z,4.60
2019-03-11T08:14:14.193Z,5.30
2019-03-11T08:16:46.103Z,6.60
2019-03-11T08:19:19.853Z,7.00
2019-03-11T08:21:55.510Z,6.80
2019-03-11T08:24:27.318Z,6.20
2019-03-11T08:26:58.870Z,6.10
2019-03-11T08:29:32.249Z,7.20
2019-03-11T08:32:04.822Z,8.60
2019-03-11T08:34:38.032Z,9.90
2019-03-11T08:37:09.793Z,11.10
2019-03-11T08:39:44.776Z,12.00
2019-03-11T08:42:16.644Z,12.80
2019-03-11T08:44:49.028Z,13.10
2019-03-11T08:47:22.493Z,13.40
2019-03-11T08:50:01.405Z,13.00
2019-03-11T08:52:35.141Z,12.80
2019-03-11T08:55:08.202Z,12.60
2019-03-11T08:57:43.159Z,12.90
2019-03-11T09:00:21.072Z,12.60
2019-03-11T09:02:53.144Z,11.90
2019-03-11T09:05:25.121Z,10.60
2019-03-11T09:07:58.218Z,9.40
2019-03-11T09:10:30.418Z,8.40
2019-03-11T09:13:02.179Z,7.50
2019-03-11T09:15:33.868Z,7.00
2019-03-11T09:18:08.454Z,6.70
2019-03-11T09:20:42.309Z,6.40
2019-03-11T09:23:15.959Z,6.20
2019-03-11T09:25:50.266Z,6.10
2019-03-11T09:28:22.118Z,6.10
2019-03-11T09:30:57.373Z,6.20
2019-03-11T09:33:31.523Z,6.60
2019-03-11T09:36:06.418Z,7.00
2019-03-11T09:38:40.937Z,7.50
2019-03-11T09:41:12.933Z,8.80
2019-03-11T09:43:45.024Z,9.90
2019-03-11T09:46:18.547Z,10.20
2019-03-11T09:48:50.279Z,10.30
2019-03-11T09:51:22.795Z,10.20
2019-03-11T09:53:54.976Z,9.70
2019-03-11T09:56:28.906Z,8.90
2019-03-11T09:59:00.954Z,8.30
2019-03-11T10:01:32.957Z,7.80
2019-03-11T10:04:05.949Z,7.70
2019-03-11T10:06:39.742Z,8.60
2019-03-11T10:09:11.765Z,9.10
2019-03-11T10:11:54.064Z,9.50
2019-03-11T10:14:26.302Z,10.10
2019-03-11T10:17:01.412Z,10.90
2019-03-11T10:19:33.734Z,11.50
2019-03-11T10:22:07.588Z,12.20
2019-03-11T10:24:39.699Z,12.50
2019-03-11T10:27:11.606Z,12.50
2019-03-11T10:29:44.286Z,11.50
2019-03-11T10:32:17.060Z,10.30
2019-03-11T10:34:49.070Z,9.40
2019-03-11T10:37:21.026Z,8.60
2019-03-11T10:39:52.790Z,8.40
2019-03-11T10:42:24.840Z,9.10
2019-03-11T10:44:56.696Z,9.70
2019-03-11T10:47:29.493Z,10.30
2019-03-11T10:50:03.260Z,10.50
2019-03-11T10:52:34.984Z,10.10
2019-03-11T10:55:07.184Z,9.20
2019-03-11T10:57:40.248Z,8.40
2019-03-11T11:00:14.961Z,7.90
2019-03-11T11:02:46.608Z,7.60
2019-03-11T11:05:18.468Z,7.30
2019-03-11T11:07:53.380Z,7.00
2019-03-11T11:10:25.695Z,6.90
2019-03-11T11:12:58.114Z,6.70
2019-03-11T11:15:31.081Z,6.50
2019-03-11T11:18:04.500Z,6.30
2019-03-11T11:20:36.327Z,6.20
2019-03-11T11:23:08.401Z,6.20
2019-03-11T11:25:43.162Z,6.30
2019-03-11T11:28:14.530Z,6.40
2019-03-11T11:30:46.606Z,6.70
2019-03-11T11:33:20.387Z,6.80
2019-03-11T11:35:53.213Z,7.00
2019-03-11T11:38:25.620Z,7.20
2019-03-11T11:40:58.486Z,7.10
2019-03-11T11:43:34.406Z,7.10
2019-03-11T11:46:06.418Z,7.10
2019-03-11T11:48:38.385Z,7.10
2019-03-11T11:51:10.763Z,7.20
2019-03-11T11:53:42.332Z,7.30
2019-03-11T11:56:14.318Z,7.40
2019-03-11T11:58:46.251Z,7.50
2019-03-11T12:01:18.604Z,7.60
2019-03-11T12:03:56.076Z,7.70
2019-03-11T12:06:28.639Z,7.70
2019-03-11T12:09:00.596Z,7.70
2019-03-11T12:11:40.464Z,7.70
2019-03-11T12:14:14.755Z,7.70
2019-03-11T12:16:48.253Z,7.60
2019-03-11T12:19:22.434Z,7.60
2019-03-11T12:21:55.668Z,7.60
2019-03-11T12:24:27.764Z,7.70
2019-03-11T12:26:59.830Z,7.70
2019-03-11T12:29:34.716Z,7.70
2019-03-11T12:32:06.967Z,7.70
2019-03-11T12:34:38.887Z,7.70
2019-03-11T12:37:13.828Z,7.80
2019-03-11T12:39:46.101Z,7.80
2019-03-11T12:42:18.031Z,7.80
2019-03-11T12:44:53.574Z,7.80
2019-03-11T12:47:24.545Z,7.70
2019-03-11T12:49:56.581Z,7.50
2019-03-11T12:52:30.726Z,7.50
2019-03-11T12:55:02.508Z,7.50
2019-03-11T12:57:34.796Z,7.40
2019-03-11T13:00:07.073Z,7.40
2019-03-11T13:02:39.144Z,7.30
2019-03-11T13:05:10.903Z,7.20
2019-03-11T13:07:42.676Z,7.10
2019-03-11T13:10:16.268Z,7.10
2019-03-11T13:12:48.606Z,7.20
2019-03-11T13:15:21.110Z,7.30
2019-03-11T13:17:55.612Z,7.30
2019-03-11T13:20:32.405Z,7.30
2019-03-11T13:23:04.194Z,7.40
2019-03-11T13:25:37.971Z,7.40
2019-03-11T13:28:10.889Z,7.40
2019-03-11T13:30:43.912Z,7.40
2019-03-11T13:33:19.014Z,7.50
2019-03-11T13:35:52.953Z,7.40
2019-03-11T13:38:25.087Z,7.30
2019-03-11T13:40:56.850Z,7.30
2019-03-11T13:43:30.126Z,7.30
2019-03-11T13:46:02.106Z,7.40
2019-03-11T13:48:35.405Z,7.50
2019-03-11T13:51:07.330Z,7.70
2019-03-11T13:53:39.139Z,7.70
2019-03-11T13:56:11.314Z,7.70
2019-03-11T13:58:44.286Z,7.80
2019-03-11T14:01:16.455Z,7.80
2019-03-11T14:03:48.860Z,7.80
2019-03-11T14:06:22.183Z,7.80
2019-03-11T14:08:54.224Z,7.80
2019-03-11T14:11:26.103Z,7.70
2019-03-11T14:13:58.798Z,7.60
2019-03-11T14:16:31.122Z,7.50
2019-03-11T14:19:03.579Z,7.60
2019-03-11T14:21:39.954Z,7.70
2019-03-11T14:24:12.078Z,7.60
2019-03-11T14:26:44.090Z,7.40
2019-03-11T14:29:16.416Z,7.30
2019-03-11T14:31:48.289Z,7.20
2019-03-11T14:34:22.742Z,7.10
2019-03-11T14:36:55.751Z,6.90
2019-03-11T14:39:30.197Z,6.90
2019-03-11T14:42:03.191Z,6.80
2019-03-11T14:44:35.260Z,6.80
2019-03-11T14:47:11.268Z,6.70
2019-03-11T14:49:43.171Z,6.60
2019-03-11T14:52:20.298Z,6.50
2019-03-11T14:54:52.187Z,6.40
2019-03-11T14:57:24.190Z,6.30
2019-03-11T14:59:56.164Z,6.20
2019-03-11T15:02:28.643Z,6.10
2019-03-11T15:05:00.314Z,6.00
2019-03-11T15:07:32.487Z,5.90
2019-03-11T15:10:04.042Z,5.90
2019-03-11T15:12:36.224Z,5.80
2019-03-11T15:15:09.445Z,5.80
2019-03-11T15:17:41.251Z,5.70
2019-03-11T15:20:13.629Z,5.70
2019-03-11T15:22:47.417Z,5.70
2019-03-11T15:25:19.874Z,5.70
2019-03-11T15:27:57.057Z,5.70
2019-03-11T15:30:29.267Z,5.70
2019-03-11T15:33:01.474Z,5.70
2019-03-11T15:35:37.005Z,5.70
2019-03-11T15:38:08.790Z,5.70
2019-03-11T15:40:40.861Z,5.60
2019-03-11T15:43:12.542Z,5.60
2019-03-11T15:45:47.491Z,5.60
2019-03-11T15:48:19.319Z,5.50
2019-03-11T15:50:52.799Z,5.50
2019-03-11T15:53:27.425Z,5.50
2019-03-11T15:56:03.072Z,5.40
2019-03-11T15:58:38.377Z,5.40
2019-03-11T16:01:10.533Z,5.40
2019-03-11T16:03:43.671Z,5.30
2019-03-11T16:06:17.134Z,5.30
2019-03-11T16:08:49.174Z,5.30
2019-03-11T16:11:30.343Z,5.30
2019-03-11T16:14:14.908Z,5.30
2019-03-11T16:16:46.835Z,5.30
2019-03-11T16:19:27.476Z,5.20
2019-03-11T16:22:00.569Z,5.20
2019-03-11T16:24:32.783Z,5.20
2019-03-11T16:27:04.646Z,5.10
2019-03-11T16:29:38.812Z,5.10
2019-03-11T16:32:15.766Z,5.00
2019-03-11T16:34:52.562Z,4.90
2019-03-11T16:37:25.571Z,4.80
2019-03-11T16:40:00.639Z,4.60
2019-03-11T16:42:33.498Z,4.60
2019-03-11T16:45:06.690Z,4.50
2019-03-11T16:47:41.774Z,4.40
2019-03-11T16:50:16.121Z,4.40
2019-03-11T16:52:49.985Z,4.30
2019-03-11T16:55:29.087Z,4.20
2019-03-11T16:58:04.002Z,4.20
2019-03-11T17:00:41.101Z,4.20
2019-03-11T17:03:13.423Z,4.10
2019-03-11T17:05:49.548Z,4.10
2019-03-11T17:08:24.304Z,4.00
2019-03-11T17:10:56.331Z,4.00
2019-03-11T17:13:28.792Z,3.90
2019-03-11T17:16:00.535Z,3.90
2019-03-11T17:18:34.665Z,3.80
2019-03-11T17:21:06.864Z,3.80
2019-03-11T17:23:38.680Z,3.80
2019-03-11T17:26:10.484Z,3.80
2019-03-11T17:28:42.626Z,3.80
2019-03-11T17:31:15.224Z,3.80
2019-03-11T17:33:47.906Z,3.80
2019-03-11T17:36:21.995Z,3.80
2019-03-11T17:38:54.152Z,3.80
2019-03-11T17:41:26.024Z,3.80
2019-03-11T17:44:05.845Z,3.80
2019-03-11T17:46:38.033Z,3.80
2019-03-11T17:49:10.356Z,3.80
2019-03-11T17:51:45.143Z,3.80
2019-03-11T17:54:22.403Z,3.80
2019-03-11T17:56:54.030Z,3.80
2019-03-11T17:59:27.752Z,3.80
2019-03-11T18:02:03.718Z,3.80
2019-03-11T18:04:36.249Z,3.80
2019-03-11T18:07:09.272Z,3.70
2019-03-11T18:09:45.151Z,3.70
2019-03-11T18:12:17.521Z,3.70
2019-03-11T18:14:49.232Z,3.70
2019-03-11T18:17:21.126Z,3.70
2019-03-11T18:19:53.270Z,3.70
2019-03-11T18:22:25.096Z,3.60
2019-03-11T18:24:56.783Z,3.60
2019-03-11T18:27:28.566Z,3.60
2019-03-11T18:30:01.299Z,3.60
2019-03-11T18:32:33.681Z,3.60
2019-03-11T18:35:05.867Z,3.60
2019-03-11T18:37:38.196Z,3.60
2019-03-11T18:40:11.450Z,3.60
2019-03-11T18:42:43.351Z,3.60
2019-03-11T18:45:15.258Z,3.60
2019-03-11T18:47:47.247Z,3.50
2019-03-11T18:50:20.477Z,3.50
2019-03-11T18:52:52.812Z,3.50
2019-03-11T18:55:25.259Z,3.50
2019-03-11T18:57:57.347Z,3.40
2019-03-11T19:00:31.418Z,3.40
2019-03-11T19:03:03.449Z,3.40
2019-03-11T19:05:36.434Z,3.30
2019-03-11T19:08:08.938Z,3.30
2019-03-11T19:10:40.794Z,3.30
2019-03-11T19:13:12.984Z,3.20
2019-03-11T19:15:44.891Z,3.20
2019-03-11T19:18:16.954Z,3.10
2019-03-11T19:20:48.734Z,3.10
2019-03-11T19:23:20.486Z,3.10
2019-03-11T19:25:52.477Z,3.00
2019-03-11T19:28:24.640Z,3.00
2019-03-11T19:30:56.779Z,3.00
2019-03-11T19:33:31.302Z,3.00
2019-03-11T19:36:03.601Z,3.00
2019-03-11T19:38:35.355Z,2.90
2019-03-11T19:41:07.428Z,2.90
2019-03-11T19:43:40.303Z,2.90
2019-03-11T19:46:13.487Z,2.90
2019-03-11T19:48:48.607Z,2.90
2019-03-11T19:51:22.845Z,3.00
2019-03-11T19:53:58.462Z,2.90
2019-03-11T19:56:30.397Z,2.90
2019-03-11T19:59:01.655Z,2.90
2019-03-11T20:01:34.262Z,2.90
2019-03-11T20:04:06.514Z,2.90
2019-03-11T20:06:38.492Z,2.90
2019-03-11T20:09:16.481Z,2.80
2019-03-11T20:11:48.320Z,2.80
2019-03-11T20:14:24.643Z,2.80
2019-03-11T20:16:56.823Z,2.80
2019-03-11T20:19:28.931Z,2.80
2019-03-11T20:22:01.112Z,2.80
2019-03-11T20:24:32.955Z,2.80
2019-03-11T20:27:04.790Z,2.80
2019-03-11T20:29:36.561Z,2.80
2019-03-11T20:32:08.548Z,2.80
2019-03-11T20:34:51.484Z,2.90
2019-03-11T20:37:23.305Z,2.80
2019-03-11T20:39:55.396Z,2.90
2019-03-11T20:42:29.811Z,2.90
2019-03-11T20:45:01.853Z,2.80
2019-03-11T20:47:33.964Z,2.80
2019-03-11T20:50:08.721Z,2.80
2019-03-11T20:52:43.811Z,2.80
2019-03-11T20:55:15.875Z,2.70
2019-03-11T20:57:49.213Z,2.70
2019-03-11T21:00:22.935Z,2.70
2019-03-11T21:02:56.343Z,2.70
2019-03-11T21:05:28.692Z,2.70
2019-03-11T21:08:03.609Z,2.70
2019-03-11T21:10:38.279Z,2.70
2019-03-11T21:13:11.499Z,2.70
2019-03-11T21:15:45.482Z,2.70
2019-03-11T21:18:18.029Z,2.60
2019-03-11T21:21:03.745Z,2.60
2019-03-11T21:23:26.597Z,2.50
2019-03-11T21:25:58.637Z,2.50
2019-03-11T21:28:31.372Z,2.50
2019-03-11T21:31:03.243Z,2.50
2019-03-11T21:33:35.118Z,2.50
2019-03-11T21:36:07.139Z,2.50
2019-03-11T21:38:39.476Z,2.50
2019-03-11T21:41:11.397Z,2.50
2019-03-11T21:43:45.252Z,2.50
2019-03-11T21:46:20.509Z,2.50
2019-03-11T21:48:53.467Z,2.50
2019-03-11T21:51:26.258Z,2.50
2019-03-11T21:54:00.415Z,2.50
2019-03-11T21:56:32.412Z,2.50
2019-03-11T21:59:04.707Z,2.50
2019-03-11T22:01:36.503Z,2.50
2019-03-11T22:04:09.211Z,2.60
2019-03-11T22:06:42.429Z,2.60
2019-03-11T22:09:14.392Z,2.60
2019-03-11T22:11:46.207Z,2.60
2019-03-11T22:14:18.391Z,2.70
2019-03-11T22:17:02.959Z,2.70
2019-03-11T22:19:34.730Z,2.70
2019-03-11T22:22:06.607Z,2.70
2019-03-11T22:24:38.395Z,2.70
2019-03-11T22:27:11.659Z,2.80
2019-03-11T22:29:44.982Z,2.80
2019-03-11T22:32:17.146Z,2.80
2019-03-11T22:34:50.999Z,2.80
2019-03-11T22:37:22.816Z,2.80
2019-03-11T22:39:56.403Z,2.80
2019-03-11T22:42:28.405Z,2.80
2019-03-11T22:45:00.900Z,2.90
2019-03-11T22:47:32.970Z,2.90
2019-03-11T22:50:04.829Z,2.80
2019-03-11T22:52:36.751Z,2.90
2019-03-11T22:55:08.554Z,2.90
2019-03-11T22:57:40.786Z,2.80
2019-03-11T23:00:20.824Z,2.80
2019-03-11T23:02:52.595Z,2.70
2019-03-11T23:05:26.368Z,2.70
2019-03-11T23:07:58.224Z,2.60
2019-03-11T23:10:29.989Z,2.60
2019-03-11T23:13:02.856Z,2.60
2019-03-11T23:15:35.740Z,2.60
2019-03-11T23:18:07.423Z,2.60
2019-03-11T23:20:52.252Z,2.50
2019-03-11T23:23:24.606Z,2.50
2019-03-11T23:25:56.639Z,2.60
2019-03-11T23:28:28.450Z,2.60
2019-03-11T23:31:00.296Z,2.60
2019-03-11T23:33:32.062Z,2.70
2019-03-11T23:36:06.964Z,2.70
2019-03-11T23:38:37.413Z,2.70
2019-03-11T23:41:09.330Z,2.70
2019-03-11T23:43:41.279Z,2.70
2019-03-11T23:46:13.192Z,2.70
2019-03-11T23:48:45.296Z,2.70
2019-03-11T23:51:17.153Z,2.70
2019-03-11T23:53:49.123Z,2.70
2019-03-11T23:56:20.943Z,2.70
2019-03-11T23:58:52.707Z,2.70
